createdAt,value
2018-01-17T00:01:15.356Z,970.11
2018-01-17T00:04:25.543Z,970.02
2018-01-17T00:06:38.765Z,969.94
2018-01-17T00:08:52.988Z,969.89
2018-01-17T00:09:52.949Z,969.92
2018-01-17T00:11:46.409Z,969.90
2018-01-17T00:14:02.135Z,969.86
2018-01-17T00:15:02.094Z,969.87
2018-01-17T00:16:55.605Z,969.81
2018-01-17T00:17:55.452Z,969.83
2018-01-17T00:21:22.445Z,969.82
2018-01-17T00:25:29.626Z,969.79
2018-01-17T00:27:02.192Z,969.76
2018-01-17T00:28:01.955Z,969.70
2018-01-17T00:29:55.306Z,969.65
2018-01-17T00:30:55.265Z,969.64
2018-01-17T00:33:09.781Z,969.63
2018-01-17T00:35:03.020Z,969.61
2018-01-17T00:36:35.369Z,969.61
2018-01-17T00:39:12.223Z,969.65
2018-01-17T00:40:47.226Z,969.60
2018-01-17T00:44:35.644Z,969.52
2018-01-17T00:45:35.601Z,969.52
2018-01-17T00:47:29.062Z,969.49
2018-01-17T00:48:28.921Z,969.45
2018-01-17T00:50:22.262Z,969.40
2018-01-17T00:51:22.237Z,969.42
2018-01-17T00:53:16.520Z,969.43
2018-01-17T00:55:49.923Z,969.40
2018-01-17T00:57:22.271Z,969.34
2018-01-17T00:59:36.520Z,969.25
2018-01-17T01:00:35.570Z,969.26
2018-01-17T01:02:28.947Z,969.20
2018-01-17T01:03:28.906Z,969.24
2018-01-17T01:05:22.417Z,969.22
2018-01-17T01:07:38.111Z,969.27
2018-01-17T01:10:12.566Z,969.38
2018-01-17T01:13:38.633Z,969.47
2018-01-17T01:15:32.268Z,969.49
2018-01-17T01:19:00.677Z,969.49
2018-01-17T01:25:18.060Z,969.41
2018-01-17T01:27:30.552Z,969.41
2018-01-17T01:28:30.511Z,969.42
2018-01-17T01:31:56.820Z,969.47
2018-01-17T01:34:31.062Z,969.43
2018-01-17T01:36:03.389Z,969.47
2018-01-17T01:37:03.342Z,969.46
2018-01-17T01:40:52.499Z,969.49
2018-01-17T01:45:30.222Z,969.45
2018-01-17T01:47:46.084Z,969.47
2018-01-17T01:48:46.023Z,969.47
2018-01-17T01:51:00.389Z,969.43
2018-01-17T01:54:05.567Z,969.29
2018-01-17T01:56:39.809Z,969.30
2018-01-17T01:58:32.667Z,969.31
2018-01-17T02:03:18.001Z,969.31
2018-01-17T02:04:17.957Z,969.26
2018-01-17T02:06:11.478Z,969.19
2018-01-17T02:08:48.168Z,969.22
2018-01-17T02:10:41.517Z,969.15
2018-01-17T02:12:34.960Z,969.09
2018-01-17T02:14:07.178Z,969.10
2018-01-17T02:15:07.136Z,969.04
2018-01-17T02:17:00.600Z,969.00
2018-01-17T02:19:13.856Z,968.97
2018-01-17T02:20:13.809Z,968.95
2018-01-17T02:27:06.616Z,968.95
2018-01-17T02:28:39.860Z,968.91
2018-01-17T02:35:35.632Z,968.99
2018-01-17T02:37:51.473Z,968.98
2018-01-17T02:40:04.920Z,968.99
2018-01-17T02:42:18.463Z,968.95
2018-01-17T02:44:52.490Z,968.91
2018-01-17T02:46:24.819Z,968.89
2018-01-17T02:47:24.781Z,968.90
2018-01-17T02:49:39.251Z,968.82
2018-01-17T02:54:18.739Z,968.87
2018-01-17T02:56:32.191Z,968.88
2018-01-17T02:57:32.054Z,968.86
2018-01-17T02:59:25.568Z,968.84
2018-01-17T03:00:25.336Z,968.80
2018-01-17T03:02:39.704Z,968.81
2018-01-17T03:04:12.042Z,968.83
2018-01-17T03:05:11.997Z,968.85
2018-01-17T03:07:05.489Z,968.87
2018-01-17T03:11:12.529Z,968.85
2018-01-17T03:13:05.748Z,968.80
2018-01-17T03:14:40.600Z,968.71
2018-01-17T03:15:40.560Z,968.68
2018-01-17T03:17:34.069Z,968.62
2018-01-17T03:18:33.867Z,968.53
2018-01-17T03:20:27.368Z,968.54
2018-01-17T03:21:27.174Z,968.54
2018-01-17T03:26:49.986Z,968.48
2018-01-17T03:28:22.169Z,968.44
2018-01-17T03:30:38.016Z,968.50
2018-01-17T03:33:12.463Z,968.57
2018-01-17T03:34:44.833Z,968.54
2018-01-17T03:35:44.636Z,968.53
2018-01-17T03:37:37.986Z,968.48
2018-01-17T03:38:37.948Z,968.51
2018-01-17T03:40:31.427Z,968.55
2018-01-17T03:41:31.252Z,968.52
2018-01-17T03:43:24.629Z,968.54
2018-01-17T03:45:37.955Z,968.50
2018-01-17T03:46:37.911Z,968.43
2018-01-17T03:53:15.597Z,968.33
2018-01-17T03:54:15.505Z,968.32
2018-01-17T03:56:09.802Z,968.22
2018-01-17T03:59:58.410Z,968.27
2018-01-17T04:02:32.598Z,968.23
2018-01-17T04:04:06.061Z,968.27
2018-01-17T04:06:40.268Z,968.29
2018-01-17T04:08:13.558Z,968.28
2018-01-17T04:10:47.091Z,968.23
2018-01-17T04:12:40.276Z,968.13
2018-01-17T04:14:13.426Z,968.12
2018-01-17T04:16:47.876Z,968.08
2018-01-17T04:19:53.015Z,968.04
2018-01-17T04:22:07.267Z,968.07
2018-01-17T04:24:40.908Z,968.02
2018-01-17T04:26:34.243Z,968.01
2018-01-17T04:28:06.691Z,968.14
2018-01-17T04:32:16.271Z,968.15
2018-01-17T04:33:48.611Z,968.11
2018-01-17T04:36:01.835Z,968.14
2018-01-17T04:40:09.029Z,968.23
2018-01-17T04:43:14.133Z,968.19
2018-01-17T04:45:48.428Z,968.16
2018-01-17T04:47:20.646Z,968.13
2018-01-17T04:48:20.619Z,968.10
2018-01-17T04:53:20.522Z,967.95
2018-01-17T04:57:09.146Z,967.99
2018-01-17T04:58:08.942Z,967.95
2018-01-17T05:00:24.430Z,968.01
2018-01-17T05:03:52.905Z,968.00
2018-01-17T05:05:26.175Z,968.07
2018-01-17T05:06:25.202Z,968.10
2018-01-17T05:09:51.413Z,968.18
2018-01-17T05:10:51.262Z,968.13
2018-01-17T05:14:37.858Z,968.32
2018-01-17T05:16:32.405Z,968.22
2018-01-17T05:18:28.195Z,968.21
2018-01-17T05:20:00.415Z,968.16
2018-01-17T05:23:49.118Z,968.00
2018-01-17T05:27:35.204Z,968.12
2018-01-17T05:30:08.923Z,968.04
2018-01-17T05:35:11.183Z,968.15
2018-01-17T05:36:46.197Z,968.22
2018-01-17T05:37:45.982Z,968.30
2018-01-17T05:39:40.341Z,968.31
2018-01-17T05:40:40.191Z,968.26
2018-01-17T05:42:33.545Z,968.18
2018-01-17T05:43:33.498Z,968.22
2018-01-17T05:47:02.193Z,968.19
2018-01-17T05:48:02.149Z,968.19
2018-01-17T05:49:56.398Z,968.19
2018-01-17T05:52:29.941Z,968.20
2018-01-17T05:54:23.254Z,968.18
2018-01-17T05:57:30.956Z,968.11
2018-01-17T05:59:44.316Z,968.07
2018-01-17T06:02:00.070Z,968.14
2018-01-17T06:04:13.416Z,968.24
2018-01-17T06:06:50.270Z,968.21
2018-01-17T06:08:22.616Z,968.27
2018-01-17T06:09:22.571Z,968.30
2018-01-17T06:11:37.047Z,968.28
2018-01-17T06:14:45.463Z,968.39
2018-01-17T06:15:45.300Z,968.33
2018-01-17T06:21:10.471Z,968.42
2018-01-17T06:23:03.931Z,968.46
2018-01-17T06:24:59.713Z,968.45
2018-01-17T06:26:31.987Z,968.45
2018-01-17T06:27:31.988Z,968.52
2018-01-17T06:29:25.323Z,968.58
2018-01-17T06:30:25.269Z,968.53
2018-01-17T06:32:39.612Z,968.61
2018-01-17T06:34:14.453Z,968.60
2018-01-17T06:35:14.396Z,968.62
2018-01-17T06:37:08.676Z,968.59
2018-01-17T06:39:44.720Z,968.62
2018-01-17T06:41:37.987Z,968.62
2018-01-17T06:43:12.775Z,968.59
2018-01-17T06:45:28.731Z,968.69
2018-01-17T06:46:28.570Z,968.69
2018-01-17T06:48:43.027Z,968.63
2018-01-17T06:50:15.246Z,968.85
2018-01-17T06:52:49.585Z,968.76
2018-01-17T06:55:58.134Z,968.75
2018-01-17T06:59:46.812Z,968.86
2018-01-17T07:00:46.659Z,968.78
2018-01-17T07:02:40.063Z,968.99
2018-01-17T07:03:40.044Z,969.01
2018-01-17T07:05:33.496Z,968.96
2018-01-17T07:07:46.677Z,969.00
2018-01-17T07:08:46.635Z,969.06
2018-01-17T07:10:40.094Z,969.05
2018-01-17T07:11:39.939Z,969.04
2018-01-17T07:13:33.412Z,969.06
2018-01-17T07:14:33.258Z,969.17
2018-01-17T07:16:29.291Z,969.15
2018-01-17T07:21:48.942Z,969.11
2018-01-17T07:22:48.874Z,969.15
2018-01-17T07:25:03.372Z,969.22
2018-01-17T07:26:56.701Z,969.18
2018-01-17T07:28:28.937Z,969.17
2018-01-17T07:29:28.896Z,969.23
2018-01-17T07:31:22.288Z,969.30
2018-01-17T07:33:59.228Z,969.35
2018-01-17T07:35:54.988Z,969.49
2018-01-17T07:37:30.010Z,969.55
2018-01-17T07:39:45.846Z,969.60
2018-01-17T07:40:45.643Z,969.63
2018-01-17T07:42:39.472Z,969.64
2018-01-17T07:45:13.661Z,969.65
2018-01-17T07:47:07.136Z,969.72
2018-01-17T07:48:39.365Z,969.77
2018-01-17T07:50:52.814Z,969.74
2018-01-17T07:53:08.663Z,969.85
2018-01-17T07:54:08.512Z,969.85
2018-01-17T07:56:22.874Z,969.79
2018-01-17T07:59:30.540Z,969.91
2018-01-17T08:00:30.495Z,969.90
2018-01-17T08:02:26.362Z,969.92
2018-01-17T08:03:26.315Z,969.91
2018-01-17T08:06:52.630Z,969.98
2018-01-17T08:09:05.862Z,969.99
2018-01-17T08:11:19.188Z,970.06
2018-01-17T08:15:08.297Z,970.13
2018-01-17T08:16:07.351Z,970.16
2018-01-17T08:18:21.696Z,970.16
2018-01-17T08:19:54.050Z,970.18
2018-01-17T08:22:07.534Z,970.26
2018-01-17T08:24:20.742Z,970.34
2018-01-17T08:25:20.689Z,970.42
2018-01-17T08:27:14.214Z,970.45
2018-01-17T08:29:27.445Z,970.53
2018-01-17T08:33:14.434Z,970.57
2018-01-17T08:35:48.085Z,970.65
2018-01-17T08:37:20.427Z,970.65
2018-01-17T08:38:20.367Z,970.76
2018-01-17T08:43:21.941Z,970.77
2018-01-17T08:48:48.290Z,970.91
2018-01-17T08:49:48.127Z,970.83
2018-01-17T08:53:17.670Z,970.88
2018-01-17T08:55:51.901Z,970.95
2018-01-17T08:57:24.373Z,971.05
2018-01-17T09:01:33.829Z,971.11
2018-01-17T09:03:06.297Z,971.14
2018-01-17T09:04:06.134Z,971.15
2018-01-17T09:06:20.492Z,971.20
2018-01-17T09:09:28.170Z,971.25
2018-01-17T09:10:28.014Z,971.37
2018-01-17T09:13:56.754Z,971.43
2018-01-17T09:16:10.320Z,971.50
2018-01-17T09:17:10.269Z,971.48
2018-01-17T09:19:03.753Z,971.44
2018-01-17T09:21:20.495Z,971.47
2018-01-17T09:22:20.328Z,971.53
2018-01-17T09:24:13.800Z,971.44
2018-01-17T09:26:27.798Z,971.56
2018-01-17T09:27:26.941Z,971.59
2018-01-17T09:29:41.292Z,971.51
2018-01-17T09:31:35.940Z,971.72
2018-01-17T09:33:08.073Z,971.73
2018-01-17T09:38:29.927Z,972.00
2018-01-17T09:39:29.762Z,972.00
2018-01-17T09:41:23.109Z,972.00
2018-01-17T09:42:23.066Z,972.06
2018-01-17T09:46:10.454Z,972.14
2018-01-17T09:49:17.892Z,972.12
2018-01-17T09:50:17.855Z,972.23
2018-01-17T09:52:11.314Z,972.24
2018-01-17T09:55:59.802Z,972.25
2018-01-17T09:58:15.793Z,972.22
2018-01-17T09:59:15.597Z,972.26
2018-01-17T10:01:09.103Z,972.34
2018-01-17T10:06:50.910Z,972.41
2018-01-17T10:09:58.326Z,972.57
2018-01-17T10:12:32.824Z,972.56
2018-01-17T10:14:26.168Z,972.57
2018-01-17T10:16:00.902Z,972.65
2018-01-17T10:18:35.348Z,972.77
2018-01-17T10:26:46.505Z,972.76
2018-01-17T10:28:18.849Z,972.84
2018-01-17T10:29:18.800Z,972.82
2018-01-17T10:34:18.593Z,972.85
2018-01-17T10:35:18.533Z,972.78
2018-01-17T10:37:32.885Z,972.82
2018-01-17T10:40:37.964Z,972.78
2018-01-17T10:43:14.802Z,972.85
2018-01-17T10:45:08.260Z,972.88
2018-01-17T10:46:42.991Z,972.82
2018-01-17T10:50:29.169Z,972.83
2018-01-17T10:52:42.551Z,972.90
2018-01-17T10:53:42.468Z,972.85
2018-01-17T10:55:36.002Z,972.91
2018-01-17T10:56:35.784Z,972.87
2018-01-17T10:58:29.249Z,972.98
2018-01-17T10:59:29.098Z,973.03
2018-01-17T11:01:46.265Z,972.94
2018-01-17T11:03:21.005Z,972.95
2018-01-17T11:04:20.960Z,973.00
2018-01-17T11:06:14.319Z,973.00
2018-01-17T11:10:03.003Z,973.09
2018-01-17T11:11:02.960Z,973.08
2018-01-17T11:13:17.594Z,973.06
2018-01-17T11:14:52.383Z,973.16
2018-01-17T11:15:52.333Z,973.16
2018-01-17T11:21:12.383Z,973.22
2018-01-17T11:22:44.720Z,973.20
2018-01-17T11:25:22.607Z,973.35
2018-01-17T11:28:28.473Z,973.33
2018-01-17T11:29:28.426Z,973.34
2018-01-17T11:31:42.892Z,973.34
2018-01-17T11:33:15.124Z,973.35
2018-01-17T11:34:15.074Z,973.36
2018-01-17T11:36:11.915Z,973.42
2018-01-17T11:37:11.691Z,973.47
2018-01-17T11:40:37.784Z,973.58
2018-01-17T11:41:37.743Z,973.53
2018-01-17T11:43:33.748Z,973.48
2018-01-17T11:47:40.813Z,973.61
2018-01-17T11:49:34.304Z,973.64
2018-01-17T11:51:06.487Z,973.78
2018-01-17T11:52:06.436Z,973.72
2018-01-17T11:53:59.790Z,973.74
2018-01-17T11:54:59.745Z,973.73
2018-01-17T11:57:15.828Z,973.73
2018-01-17T12:00:19.199Z,973.80
2018-01-17T12:04:26.434Z,973.88
2018-01-17T12:05:58.906Z,973.89
2018-01-17T12:08:12.298Z,973.99
2018-01-17T12:09:12.096Z,974.05
2018-01-17T12:12:43.307Z,974.08
2018-01-17T12:13:43.268Z,974.07
2018-01-17T12:15:36.735Z,973.94
2018-01-17T12:17:52.570Z,974.06
2018-01-17T12:20:08.330Z,974.11
2018-01-17T12:23:54.385Z,974.11
2018-01-17T12:24:54.340Z,974.17
2018-01-17T12:26:47.853Z,974.22
2018-01-17T12:29:01.035Z,974.20
2018-01-17T12:31:14.387Z,974.26
2018-01-17T12:33:48.844Z,974.33
2018-01-17T12:35:21.989Z,974.53
2018-01-17T12:36:21.824Z,974.42
2018-01-17T12:38:38.688Z,974.50
2018-01-17T12:40:11.200Z,974.58
2018-01-17T12:42:24.470Z,974.55
2018-01-17T12:43:24.317Z,974.63
2018-01-17T12:45:17.672Z,974.64
2018-01-17T12:47:32.126Z,974.66
2018-01-17T12:51:20.716Z,974.75
2018-01-17T12:53:36.657Z,974.69
2018-01-17T12:54:36.510Z,974.68
2018-01-17T12:59:59.949Z,974.84
2018-01-17T13:03:28.776Z,974.84
2018-01-17T13:05:03.618Z,974.90
2018-01-17T13:06:03.569Z,974.81
2018-01-17T13:07:57.026Z,974.97
2018-01-17T13:08:56.873Z,974.92
2018-01-17T13:10:50.259Z,974.96
2018-01-17T13:11:50.202Z,974.90
2018-01-17T13:15:37.601Z,975.03
2018-01-17T13:17:12.279Z,974.96
2018-01-17T13:18:12.234Z,975.04
2018-01-17T13:22:00.542Z,975.05
2018-01-17T13:25:31.673Z,975.13
2018-01-17T13:27:24.886Z,975.04
2018-01-17T13:28:57.199Z,975.08
2018-01-17T13:29:57.151Z,975.11
2018-01-17T13:31:50.737Z,975.14
2018-01-17T13:34:24.898Z,975.11
2018-01-17T13:35:57.298Z,975.09
2018-01-17T13:36:57.182Z,975.09
2018-01-17T13:40:46.939Z,975.04
2018-01-17T13:43:54.495Z,975.10
2018-01-17T13:46:07.825Z,975.08
2018-01-17T13:48:22.132Z,975.28
2018-01-17T13:50:37.868Z,975.32
2018-01-17T13:51:37.830Z,975.20
2018-01-17T13:55:03.938Z,975.33
2018-01-17T13:59:13.767Z,975.32
2018-01-17T14:01:06.954Z,975.22
2018-01-17T14:02:42.069Z,975.21
2018-01-17T14:03:41.107Z,975.36
2018-01-17T14:05:55.478Z,975.45
2018-01-17T14:07:48.923Z,975.26
2018-01-17T14:11:15.852Z,975.46
2018-01-17T14:12:49.088Z,975.42
2018-01-17T14:13:49.043Z,975.42
2018-01-17T14:17:42.308Z,975.52
2018-01-17T14:18:42.265Z,975.59
2018-01-17T14:19:21.225Z,975.56
2018-01-17T14:22:15.248Z,975.46
2018-01-17T14:23:46.654Z,975.68
2018-01-17T14:24:46.605Z,975.76
2018-01-17T14:26:40.075Z,975.64
2018-01-17T14:27:39.927Z,975.73
2018-01-17T14:29:33.425Z,975.73
2018-01-17T14:33:24.505Z,975.79
2018-01-17T14:35:40.405Z,975.86
2018-01-17T14:37:54.437Z,975.94
2018-01-17T14:38:54.387Z,976.00
2018-01-17T14:40:47.903Z,976.02
2018-01-17T14:43:03.594Z,975.98
2018-01-17T14:45:17.063Z,976.00
2018-01-17T14:47:30.254Z,976.10
2018-01-17T14:48:30.207Z,976.11
2018-01-17T14:50:44.687Z,976.12
2018-01-17T14:52:17.081Z,976.14
2018-01-17T14:53:16.902Z,976.08
2018-01-17T14:56:43.141Z,976.16
2018-01-17T14:58:56.337Z,976.17
2018-01-17T14:59:56.287Z,976.26
2018-01-17T15:01:52.155Z,976.25
2018-01-17T15:02:52.102Z,976.24
2018-01-17T15:04:45.477Z,976.20
2018-01-17T15:05:45.412Z,976.35
2018-01-17T15:07:41.321Z,976.29
2018-01-17T15:08:41.237Z,976.23
2018-01-17T15:13:40.905Z,976.37
2018-01-17T15:14:40.842Z,976.36
2018-01-17T15:16:55.206Z,976.26
2018-01-17T15:18:27.544Z,976.22
2018-01-17T15:21:01.886Z,976.30
2018-01-17T15:22:37.542Z,976.25
2018-01-17T15:23:36.673Z,976.37
2018-01-17T15:25:30.056Z,976.30
2018-01-17T15:26:29.999Z,976.39
2018-01-17T15:28:25.890Z,976.37
2018-01-17T15:29:25.828Z,976.38
2018-01-17T15:31:40.213Z,976.39
2018-01-17T15:33:33.514Z,976.31
2018-01-17T15:35:26.847Z,976.32
2018-01-17T15:38:31.933Z,976.43
2018-01-17T15:41:07.088Z,976.33
2018-01-17T15:42:39.404Z,976.33
2018-01-17T15:44:52.742Z,976.45
2018-01-17T15:47:27.109Z,976.38
2018-01-17T15:48:59.465Z,976.52
2018-01-17T15:49:59.400Z,976.46
2018-01-17T15:52:13.746Z,976.56
2018-01-17T15:53:46.091Z,976.49
2018-01-17T15:54:46.034Z,976.54
2018-01-17T15:56:39.394Z,976.46
2018-01-17T15:58:55.294Z,976.60
2018-01-17T16:01:11.118Z,976.69
2018-01-17T16:02:11.060Z,976.72
2018-01-17T16:05:37.168Z,976.69
2018-01-17T16:06:37.122Z,976.71
2018-01-17T16:10:03.238Z,976.73
2018-01-17T16:11:03.170Z,976.71
2018-01-17T16:12:56.533Z,976.80
2018-01-17T16:13:56.480Z,976.76
2018-01-17T16:16:10.850Z,976.85
2018-01-17T16:17:43.184Z,976.93
2018-01-17T16:21:52.769Z,977.01
2018-01-17T16:23:27.596Z,977.00
2018-01-17T16:25:42.778Z,976.95
2018-01-17T16:27:56.165Z,976.93
2018-01-17T16:28:56.113Z,976.90
2018-01-17T16:32:43.211Z,976.88
2018-01-17T16:34:15.560Z,976.90
2018-01-17T16:36:28.889Z,976.94
2018-01-17T16:38:42.205Z,976.91
2018-01-17T16:39:42.165Z,976.88
2018-01-17T16:41:57.428Z,976.81
2018-01-17T16:43:29.758Z,976.82
2018-01-17T16:44:29.705Z,976.85
2018-01-17T16:46:44.057Z,976.82
2018-01-17T16:48:17.245Z,976.81
2018-01-17T16:50:30.583Z,976.80
2018-01-17T16:52:43.969Z,976.75
2018-01-17T16:53:43.918Z,976.76
2018-01-17T16:55:58.264Z,976.75
2018-01-17T16:57:30.609Z,976.80
2018-01-17T17:01:19.162Z,976.81
2018-01-17T17:03:53.503Z,976.89
2018-01-17T17:05:25.868Z,976.94
2018-01-17T17:06:25.800Z,976.90
2018-01-17T17:08:40.154Z,976.96
2018-01-17T17:11:48.688Z,976.85
2018-01-17T17:14:01.957Z,976.96
2018-01-17T17:15:01.911Z,976.97
2018-01-17T17:16:55.325Z,976.96
2018-01-17T17:17:55.225Z,976.87
2018-01-17T17:20:09.651Z,977.04
2018-01-17T17:22:02.973Z,977.00
2018-01-17T17:23:35.321Z,977.01
2018-01-17T17:24:35.267Z,976.97
2018-01-17T17:26:49.628Z,976.98
2018-01-17T17:31:51.757Z,977.09
2018-01-17T17:36:35.574Z,976.96
2018-01-17T17:37:35.543Z,976.97
2018-01-17T17:44:07.966Z,977.18
2018-01-17T17:47:53.566Z,977.18
2018-01-17T17:50:06.887Z,977.21
2018-01-17T17:51:06.833Z,977.28
2018-01-17T17:53:00.223Z,977.13
2018-01-17T17:54:00.152Z,977.26
2018-01-17T17:55:56.006Z,977.22
2018-01-17T17:58:11.856Z,977.43
2018-01-17T18:00:25.988Z,977.28
2018-01-17T18:01:25.129Z,977.41
2018-01-17T18:03:39.506Z,977.44
2018-01-17T18:05:14.335Z,977.57
2018-01-17T18:06:14.292Z,977.54
2018-01-17T18:08:07.655Z,977.50
2018-01-17T18:09:07.601Z,977.63
2018-01-17T18:12:33.703Z,977.64
2018-01-17T18:17:52.521Z,977.95
2018-01-17T18:18:52.462Z,977.89
2018-01-17T18:20:45.841Z,978.02
2018-01-17T18:24:35.225Z,978.03
2018-01-17T18:29:54.948Z,978.04
2018-01-17T18:32:29.255Z,978.05
2018-01-17T18:34:22.628Z,978.14
2018-01-17T18:35:54.984Z,978.16
2018-01-17T18:36:54.922Z,978.13
2018-01-17T18:39:09.292Z,978.24
2018-01-17T18:40:44.121Z,978.14
2018-01-17T18:44:30.218Z,978.24
2018-01-17T18:48:39.810Z,978.33
2018-01-17T18:50:12.218Z,978.38
2018-01-17T18:52:28.069Z,978.46
2018-01-17T18:56:14.145Z,978.59
2018-01-17T18:58:29.993Z,978.51
2018-01-17T18:59:29.943Z,978.53
2018-01-17T19:01:23.315Z,978.61
2018-01-17T19:02:23.249Z,978.63
2018-01-17T19:04:37.614Z,978.61
2018-01-17T19:06:09.938Z,978.64
2018-01-17T19:07:09.903Z,978.77
2018-01-17T19:09:03.279Z,978.66
2018-01-17T19:11:40.129Z,978.69
2018-01-17T19:14:45.198Z,978.77
2018-01-17T19:17:01.054Z,978.78
2018-01-17T19:20:47.337Z,978.87
2018-01-17T19:21:47.326Z,978.98
2018-01-17T19:23:40.683Z,978.94
2018-01-17T19:26:17.501Z,979.06
2018-01-17T19:27:52.340Z,979.14
2018-01-17T19:30:05.739Z,979.12
2018-01-17T19:32:19.013Z,979.18
2018-01-17T19:34:34.871Z,979.18
2018-01-17T19:35:34.818Z,979.17
2018-01-17T19:37:30.723Z,979.19
2018-01-17T19:39:46.530Z,979.20
2018-01-17T19:43:35.087Z,979.35
2018-01-17T19:44:35.021Z,979.44
2018-01-17T19:48:01.145Z,979.55
2018-01-17T19:50:14.496Z,979.51
2018-01-17T19:52:27.822Z,979.53
2018-01-17T19:55:02.227Z,979.64
2018-01-17T19:56:34.582Z,979.78
2018-01-17T19:57:34.516Z,979.65
2018-01-17T19:59:48.923Z,979.80
2018-01-17T20:01:42.260Z,979.78
2018-01-17T20:03:35.635Z,979.85
2018-01-17T20:05:28.990Z,979.76
2018-01-17T20:08:37.511Z,979.84
2018-01-17T20:15:55.118Z,980.07
2018-01-17T20:17:48.468Z,980.21
2018-01-17T20:20:53.535Z,980.25
2018-01-17T20:21:53.475Z,980.19
2018-01-17T20:23:46.861Z,980.14
2018-01-17T20:27:56.429Z,980.29
2018-01-17T20:29:31.250Z,980.24
2018-01-17T20:30:31.213Z,980.07
2018-01-17T20:33:57.300Z,980.30
2018-01-17T20:34:57.253Z,980.39
2018-01-17T20:36:50.607Z,980.33
2018-01-17T20:39:03.984Z,980.32
2018-01-17T20:43:11.033Z,980.44
2018-01-17T20:45:04.398Z,980.48
2018-01-17T20:46:39.236Z,980.37
2018-01-17T20:47:39.203Z,980.48
2018-01-17T20:49:32.566Z,980.57
2018-01-17T20:51:48.401Z,980.49
2018-01-17T20:54:25.238Z,980.63
2018-01-17T20:57:30.364Z,980.59
2018-01-17T21:01:37.431Z,980.65
2018-01-17T21:03:31.130Z,980.67
2018-01-17T21:05:05.984Z,980.72
2018-01-17T21:08:52.144Z,980.79
2018-01-17T21:14:11.054Z,980.84
2018-01-17T21:16:24.428Z,980.83
2018-01-17T21:17:24.390Z,980.81
2018-01-17T21:19:39.665Z,980.80
2018-01-17T21:21:12.793Z,980.73
2018-01-17T21:22:11.996Z,980.76
2018-01-17T21:24:26.290Z,980.74
2018-01-17T21:25:58.644Z,980.65
2018-01-17T21:28:12.003Z,980.71
2018-01-17T21:29:11.973Z,980.75
2018-01-17T21:31:05.302Z,980.80
2018-01-17T21:32:05.231Z,980.86
2018-01-17T21:33:58.582Z,980.68
2018-01-17T21:36:14.448Z,980.93
2018-01-17T21:38:30.265Z,980.80
2018-01-17T21:39:30.220Z,980.78
2018-01-17T21:41:23.592Z,980.88
2018-01-17T21:42:23.536Z,980.90
2018-01-17T21:44:38.010Z,980.90
2018-01-17T21:46:10.240Z,980.93
2018-01-17T21:51:31.593Z,980.93
2018-01-17T21:52:31.543Z,981.05
2018-01-17T21:54:46.744Z,981.07
2018-01-17T21:56:40.146Z,981.31
2018-01-17T21:58:12.552Z,981.24
2018-01-17T21:59:12.508Z,981.22
2018-01-17T22:01:08.374Z,981.07
2018-01-17T22:03:42.710Z,981.01
2018-01-17T22:05:15.855Z,981.16
2018-01-17T22:06:14.992Z,981.16
2018-01-17T22:08:08.366Z,981.17
2018-01-17T22:10:21.714Z,981.17
2018-01-17T22:11:21.656Z,981.26
2018-01-17T22:14:50.258Z,981.34
2018-01-17T22:17:03.583Z,981.43
2018-01-17T22:18:03.533Z,981.51
2018-01-17T22:19:57.822Z,981.56
2018-01-17T22:20:57.743Z,981.55
2018-01-17T22:22:53.606Z,981.69
2018-01-17T22:25:06.972Z,981.50
2018-01-17T22:26:06.925Z,981.58
2018-01-17T22:28:00.300Z,981.53
2018-01-17T22:29:00.243Z,981.52
2018-01-17T22:35:52.832Z,981.52
2018-01-17T22:37:25.195Z,981.57
2018-01-17T22:39:38.512Z,981.54
2018-01-17T22:40:38.468Z,981.59
2018-01-17T22:42:52.345Z,981.57
2018-01-17T22:44:27.181Z,981.63
2018-01-17T22:45:27.134Z,981.64
2018-01-17T22:51:58.766Z,981.85
2018-01-17T22:54:15.466Z,981.87
2018-01-17T22:55:15.403Z,981.82
2018-01-17T22:57:32.254Z,981.83
2018-01-17T23:03:46.208Z,981.93
2018-01-17T23:04:46.166Z,981.89
2018-01-17T23:07:00.567Z,981.96
2018-01-17T23:08:35.424Z,981.95
2018-01-17T23:09:35.362Z,982.01
2018-01-17T23:11:28.717Z,981.98
2018-01-17T23:13:44.600Z,981.96
2018-01-17T23:14:44.539Z,982.00
2018-01-17T23:16:40.410Z,981.95
2018-01-17T23:20:26.503Z,982.02
2018-01-17T23:24:13.568Z,982.06
2018-01-17T23:25:13.514Z,982.01
2018-01-17T23:27:27.883Z,982.01
2018-01-17T23:30:32.965Z,982.05
2018-01-17T23:33:07.302Z,982.09
2018-01-17T23:34:39.679Z,982.05
2018-01-17T23:35:39.623Z,981.97
2018-01-17T23:37:32.970Z,981.92
2018-01-17T23:38:32.927Z,981.88
2018-01-17T23:42:01.610Z,981.89
2018-01-17T23:44:14.936Z,981.82
2018-01-17T23:45:14.885Z,981.82
2018-01-17T23:47:31.776Z,981.73
2018-01-17T23:49:27.613Z,981.74
2018-01-17T23:52:35.295Z,981.82
2018-01-17T23:54:48.619Z,981.78
2018-01-17T23:55:48.566Z,981.82
2018-01-17T23:57:41.945Z,981.91
2018-01-17T23:59:56.121Z,981.90
